createdAt,value
2023-01-25T00:02:44.611Z,42.53
2023-01-25T00:10:04.651Z,43.53
2023-01-25T00:17:22.796Z,41.03
2023-01-25T00:24:40.895Z,43.00
2023-01-25T00:32:43.420Z,39.72
2023-01-25T00:40:01.715Z,40.25
2023-01-25T00:47:21.309Z,41.10
2023-01-25T00:54:39.687Z,40.25
2023-01-25T01:01:58.723Z,44.70
2023-01-25T01:09:19.602Z,41.17
2023-01-25T01:16:38.105Z,38.17
2023-01-25T01:23:56.689Z,31.98
2023-01-25T01:31:18.616Z,38.85
2023-01-25T01:38:46.121Z,40.60
2023-01-25T01:46:05.353Z,40.47
2023-01-25T02:00:47.201Z,31.13
2023-01-25T02:08:06.874Z,22.15
2023-01-25T02:15:29.376Z,20.60
2023-01-25T02:22:54.196Z,21.58
2023-01-25T02:30:14.156Z,20.55
2023-01-25T02:37:32.460Z,29.13
2023-01-25T02:44:51.461Z,34.15
2023-01-25T02:52:11.113Z,23.55
2023-01-25T02:59:29.348Z,39.60
2023-01-25T03:06:51.962Z,40.78
2023-01-25T03:14:12.199Z,38.92
2023-01-25T03:21:30.933Z,35.08
2023-01-25T03:28:49.405Z,36.15
2023-01-25T03:36:10.735Z,34.08
2023-01-25T03:43:29.963Z,39.30
2023-01-25T03:50:52.494Z,21.38
2023-01-25T03:58:13.417Z,18.75
2023-01-25T04:05:32.320Z,29.08
2023-01-25T04:12:51.670Z,33.90
2023-01-25T04:20:13.060Z,35.95
2023-01-25T04:27:32.303Z,38.70
2023-01-25T04:35:03.763Z,39.95
2023-01-25T04:42:24.321Z,38.95
2023-01-25T04:49:46.331Z,28.73
2023-01-25T04:57:08.361Z,20.70
2023-01-25T05:04:29.693Z,22.70
2023-01-25T05:11:48.331Z,19.48
2023-01-25T05:19:15.818Z,21.77
2023-01-25T05:27:03.751Z,23.13
2023-01-25T05:34:59.304Z,19.50
2023-01-25T05:42:20.223Z,22.25
2023-01-25T05:49:39.186Z,28.35
2023-01-25T05:57:00.285Z,33.80
2023-01-25T06:04:20.327Z,35.20
2023-01-25T06:11:39.089Z,33.70
2023-01-25T06:18:57.484Z,32.20
2023-01-25T06:26:38.729Z,20.75
2023-01-25T06:33:59.930Z,24.25
2023-01-25T06:41:19.021Z,28.48
2023-01-25T06:48:38.857Z,26.90
2023-01-25T06:56:00.989Z,17.13
2023-01-25T07:03:19.214Z,17.73
2023-01-25T07:10:38.805Z,17.20
2023-01-25T07:18:03.242Z,19.25
2023-01-25T07:25:29.827Z,17.53
2023-01-25T07:32:49.417Z,14.25
2023-01-25T07:40:08.820Z,15.70
2023-01-25T07:47:26.988Z,16.63
2023-01-25T07:54:48.329Z,16.63
2023-01-25T08:02:09.344Z,16.80
2023-01-25T08:09:28.600Z,15.38
2023-01-25T08:16:48.133Z,15.85
2023-01-25T08:24:07.917Z,16.85
2023-01-25T08:31:28.353Z,15.70
2023-01-25T08:38:48.585Z,16.75
2023-01-25T08:46:07.445Z,14.80
2023-01-25T08:53:25.800Z,15.35
2023-01-25T09:00:45.560Z,16.98
2023-01-25T09:08:05.482Z,15.48
2023-01-25T09:15:24.229Z,13.93
2023-01-25T09:22:43.795Z,16.25
2023-01-25T09:30:03.278Z,13.88
2023-01-25T09:37:22.570Z,11.18
2023-01-25T09:44:52.486Z,13.98
2023-01-25T09:52:22.677Z,12.88
2023-01-25T09:59:42.046Z,11.82
2023-01-25T10:07:08.068Z,11.63
2023-01-25T10:14:26.723Z,12.63
2023-01-25T10:21:47.200Z,14.48
2023-01-25T10:29:12.581Z,13.80
2023-01-25T10:36:31.974Z,14.60
2023-01-25T10:44:10.325Z,13.85
2023-01-25T10:51:35.537Z,13.48
2023-01-25T10:58:55.560Z,13.77
2023-01-25T11:06:14.344Z,13.48
2023-01-25T11:13:35.387Z,13.00
2023-01-25T11:21:06.230Z,11.98
2023-01-25T11:28:25.497Z,12.63
2023-01-25T11:36:03.451Z,13.35
2023-01-25T11:43:33.989Z,12.43
2023-01-25T11:51:00.821Z,12.00
2023-01-25T11:58:36.098Z,13.60
2023-01-25T12:06:00.538Z,13.73
2023-01-25T12:13:25.566Z,14.00
2023-01-25T12:21:17.494Z,14.50
2023-01-25T12:28:45.888Z,14.55
2023-01-25T12:36:08.614Z,15.70
2023-01-25T12:43:32.059Z,13.97
2023-01-25T12:58:26.505Z,15.32
2023-01-25T13:05:57.758Z,16.02
2023-01-25T13:13:25.383Z,14.68
2023-01-25T13:20:50.883Z,15.85
2023-01-25T13:28:42.973Z,14.02
2023-01-25T13:36:45.382Z,16.23
2023-01-25T13:44:28.464Z,15.10
2023-01-25T13:51:47.940Z,13.85
2023-01-25T13:59:06.423Z,13.52
2023-01-25T14:06:28.007Z,14.32
2023-01-25T14:13:57.202Z,12.85
2023-01-25T14:21:18.436Z,14.77
2023-01-25T14:28:37.962Z,15.27
2023-01-25T14:36:03.490Z,15.55
2023-01-25T14:43:31.115Z,13.88
2023-01-25T14:50:50.821Z,17.40
2023-01-25T14:58:14.425Z,16.88
2023-01-25T15:05:33.713Z,14.38
2023-01-25T15:13:13.295Z,16.20
2023-01-25T15:20:38.006Z,16.60
2023-01-25T15:27:56.312Z,17.27
2023-01-25T15:35:19.363Z,17.30
2023-01-25T15:42:37.589Z,16.17
2023-01-25T15:49:55.849Z,16.98
2023-01-25T15:57:22.046Z,16.95
2023-01-25T16:04:42.372Z,18.00
2023-01-25T16:12:02.837Z,18.15
2023-01-25T16:19:25.593Z,18.13
2023-01-25T16:26:46.567Z,13.80
2023-01-25T16:34:05.167Z,16.42
2023-01-25T16:41:24.799Z,17.30
2023-01-25T16:48:42.994Z,16.50
2023-01-25T16:56:01.168Z,18.13
2023-01-25T17:03:20.766Z,18.23
2023-01-25T17:10:39.408Z,17.17
2023-01-25T17:18:00.130Z,17.77
2023-01-25T17:25:20.586Z,18.63
2023-01-25T17:32:38.911Z,18.33
2023-01-25T17:39:57.129Z,18.73
2023-01-25T17:47:16.851Z,18.83
2023-01-25T17:54:36.413Z,18.30
2023-01-25T18:01:54.730Z,20.58
2023-01-25T18:09:14.291Z,20.55
2023-01-25T18:16:33.834Z,21.92
2023-01-25T18:23:52.792Z,22.65
2023-01-25T18:31:12.900Z,22.77
2023-01-25T18:38:32.945Z,22.70
2023-01-25T18:45:55.746Z,21.63
2023-01-25T18:53:17.730Z,23.03
2023-01-25T19:00:36.311Z,23.17
2023-01-25T19:07:54.505Z,21.40
2023-01-25T19:15:14.259Z,20.27
2023-01-25T19:22:32.679Z,17.42
2023-01-25T19:29:51.649Z,17.52
2023-01-25T19:37:11.288Z,16.80
2023-01-25T19:44:29.911Z,18.60
2023-01-25T19:51:53.257Z,18.90
2023-01-25T19:59:15.052Z,19.85
2023-01-25T20:06:33.809Z,18.67
2023-01-25T20:13:54.244Z,15.77
2023-01-25T20:21:15.403Z,18.08
2023-01-25T20:28:34.753Z,18.52
2023-01-25T20:35:55.156Z,18.60
2023-01-25T20:43:14.728Z,21.30
2023-01-25T20:50:32.885Z,21.10
2023-01-25T20:57:53.490Z,21.58
2023-01-25T21:05:13.848Z,24.23
2023-01-25T21:12:33.558Z,25.95
2023-01-25T21:19:51.933Z,26.55
2023-01-25T21:27:11.845Z,56.15
2023-01-25T21:34:31.091Z,26.20
2023-01-25T21:41:49.399Z,26.92
2023-01-25T21:49:28.057Z,23.67
2023-01-25T21:56:49.260Z,25.08
2023-01-25T22:04:08.809Z,24.83
2023-01-25T22:11:27.258Z,24.67
2023-01-25T22:18:45.789Z,24.02
2023-01-25T22:26:08.062Z,24.20
2023-01-25T22:33:26.332Z,23.77
2023-01-25T22:40:44.761Z,21.75
2023-01-25T22:48:04.289Z,23.33
2023-01-25T22:55:22.536Z,24.10
2023-01-25T23:02:40.715Z,24.85
2023-01-25T23:10:00.565Z,23.10
2023-01-25T23:17:48.151Z,22.98
2023-01-25T23:25:09.988Z,24.98
2023-01-25T23:32:29.081Z,21.70
2023-01-25T23:39:47.705Z,25.33
2023-01-25T23:47:07.602Z,23.40
2023-01-25T23:54:27.032Z,26.63
